Time;durP1;ratioP1;P1;durP2;ratioP2;P2;SDS_P1;SDS_P2;PMS_P1;PMS_P2;Temp;Humidity;BMP_temperature;BMP_pressure;BME280_temperature;BME280_humidity;BME280_pressure;Samples;Min_cycle;Max_cycle;Signal;HPM_P1;HPM_P2
2021/12/31 00:02:19;;;;;;;0.20;0.20;;;;;;;19.05;44.87;101497.97;5137134;27;20214;-35
2021/12/31 00:04:45;;;;;;;0.20;0.20;;;;;;;19.05;44.98;101501.56;5116927;27;20139;-34
2021/12/31 00:07:11;;;;;;;0.20;0.20;;;;;;;19.06;44.93;101502.41;5116506;27;20063;-36
2021/12/31 00:09:38;;;;;;;0.20;0.20;;;;;;;19.05;45.03;101501.56;5137903;27;20133;-38
2021/12/31 00:12:05;;;;;;;0.20;0.20;;;;;;;19.04;44.90;101499.06;5138245;27;20043;-34
2021/12/31 00:14:31;;;;;;;0.20;0.20;;;;;;;19.05;45.05;101497.97;5118790;27;20043;-34
2021/12/31 00:16:57;;;;;;;0.22;0.22;;;;;;;19.05;45.01;101490.53;5137406;27;20041;-34
2021/12/31 00:19:25;;;;;;;0.20;0.20;;;;;;;19.05;45.00;101490.53;5137324;27;20035;-38
2021/12/31 00:21:51;;;;;;;0.20;0.20;;;;;;;19.06;44.91;101499.63;5137324;27;20296;-35
2021/12/31 00:24:17;;;;;;;0.20;0.20;;;;;;;19.05;44.82;101487.75;5137594;27;20037;-34
2021/12/31 00:26:43;;;;;;;0.20;0.20;;;;;;;19.05;45.08;101495.22;5139732;27;20045;-35
2021/12/31 00:29:08;;;;;;;0.20;0.20;;;;;;;19.05;44.85;101490.53;5137917;27;20081;-34
2021/12/31 00:31:34;;;;;;;0.20;0.20;;;;;;;19.05;45.09;101490.53;5141067;27;20055;-34
2021/12/31 00:34:00;;;;;;;0.20;0.20;;;;;;;19.07;45.02;101486.66;5136958;27;20400;-34
2021/12/31 00:36:43;;;;;;;0.30;0.30;;;;;;;19.05;44.98;101487.75;5137403;27;20065;-36
2021/12/31 00:39:09;;;;;;;0.20;0.20;;;;;;;19.05;45.08;101478.66;5099864;27;20158;-34
2021/12/31 00:41:34;;;;;;;0.20;0.20;;;;;;;19.05;45.11;101486.94;5135632;27;20462;-34
2021/12/31 00:44:00;;;;;;;0.30;0.30;;;;;;;19.06;44.78;101488.59;5138790;27;20057;-34
2021/12/31 00:46:26;;;;;;;0.20;0.20;;;;;;;19.05;45.09;101485.00;5134699;27;20438;-35
2021/12/31 00:48:51;;;;;;;0.20;0.20;;;;;;;19.06;45.17;101480.31;5134134;27;20047;-34
2021/12/31 00:51:17;;;;;;;0.20;0.20;;;;;;;19.05;44.73;101476.72;5143209;27;20062;-34
2021/12/31 00:53:43;;;;;;;0.20;0.20;;;;;;;19.07;44.84;101475.63;5134396;27;20035;-34
2021/12/31 00:56:08;;;;;;;0.20;0.20;;;;;;;19.07;44.83;101473.69;5133312;27;20043;-35
2021/12/31 00:58:34;;;;;;;0.25;0.25;;;;;;;19.07;45.10;101481.13;5143776;27;20043;-34
2021/12/31 01:00:59;;;;;;;0.20;0.20;;;;;;;19.07;45.20;101478.38;5138713;27;20041;-35
2021/12/31 01:03:26;;;;;;;0.20;0.20;;;;;;;19.07;44.77;101475.63;5133304;27;20463;-35
2021/12/31 01:05:51;;;;;;;0.20;0.20;;;;;;;19.06;45.11;101480.31;5134689;27;20050;-34
2021/12/31 01:08:17;;;;;;;0.20;0.20;;;;;;;19.07;44.99;101484.72;5132737;27;20604;-37
2021/12/31 01:10:43;;;;;;;0.20;0.20;;;;;;;19.08;44.94;101485.56;5133060;27;20049;-36
2021/12/31 01:13:13;;;;;;;0.20;0.20;;;;;;;19.08;44.93;101491.06;5135143;27;20047;-34
2021/12/31 01:15:43;;;;;;;0.20;0.20;;;;;;;19.08;45.07;101488.31;5137595;27;20043;-34
2021/12/31 01:20:45;;;;;;;0.20;0.20;;;;;;;19.07;45.04;101481.13;5161822;27;20124;-34
2021/12/31 01:23:11;;;;;;;0.20;0.20;;;;;;;19.08;44.72;101491.06;5130151;27;20035;-34
2021/12/31 01:25:37;;;;;;;0.20;0.20;;;;;;;19.08;45.02;101488.31;5148852;27;20043;-35
2021/12/31 01:28:04;;;;;;;0.20;0.20;;;;;;;19.07;45.00;101494.94;5147629;27;20043;-34
2021/12/31 01:30:30;;;;;;;0.20;0.20;;;;;;;19.08;45.02;101496.59;5152742;27;20043;-34
2021/12/31 01:32:56;;;;;;;0.20;0.20;;;;;;;19.07;45.05;101490.25;5128938;27;20171;-34
2021/12/31 01:35:21;;;;;;;0.20;0.20;;;;;;;19.08;45.07;101491.06;5145744;27;20132;-34
2021/12/31 01:37:47;;;;;;;0.20;0.20;;;;;;;19.07;44.95;101489.41;5143909;27;20120;-34
2021/12/31 01:40:13;;;;;;;0.20;0.20;;;;;;;19.08;45.01;101488.31;5144536;27;20043;-34
2021/12/31 01:42:39;;;;;;;0.20;0.20;;;;;;;19.08;45.02;101491.06;5147347;27;20039;-34
2021/12/31 01:45:09;;;;;;;0.20;0.20;;;;;;;19.08;45.10;101485.56;5151902;27;20035;-34
2021/12/31 01:47:55;;;;;;;0.20;0.20;;;;;;;19.07;45.17;101493.00;5139738;27;20343;-34
2021/12/31 01:50:23;;;;;;;0.20;0.20;;;;;;;19.08;44.97;101485.56;5152570;27;20336;-34
2021/12/31 01:52:48;;;;;;;0.20;0.20;;;;;;;19.09;44.88;101478.97;5126831;27;20042;-35
2021/12/31 01:55:14;;;;;;;0.20;0.20;;;;;;;19.09;45.04;101481.72;5143112;27;20043;-34
2021/12/31 01:57:41;;;;;;;0.20;0.20;;;;;;;19.08;44.99;101483.63;5154492;27;20051;-35
2021/12/31 02:00:08;;;;;;;0.20;0.20;;;;;;;19.08;44.90;101483.63;5148109;27;20042;-34
2021/12/31 02:02:35;;;;;;;0.20;0.20;;;;;;;19.08;45.08;101486.38;5152702;27;20039;-34
2021/12/31 02:05:02;;;;;;;0.20;0.20;;;;;;;19.09;44.93;101487.25;5127890;27;20049;-34
2021/12/31 02:07:28;;;;;;;0.20;0.20;;;;;;;19.09;45.05;101490.00;5135847;27;20133;-34
2021/12/31 02:09:54;;;;;;;0.20;0.20;;;;;;;19.09;45.07;101492.75;5141016;27;20450;-35
2021/12/31 02:12:23;;;;;;;0.20;0.20;;;;;;;19.09;44.97;101492.75;5154162;27;20035;-34
2021/12/31 02:14:51;;;;;;;0.20;0.20;;;;;;;19.09;45.07;101493.59;5131241;27;20532;-34
2021/12/31 02:17:17;;;;;;;0.30;0.30;;;;;;;19.09;44.95;101488.06;5111804;27;20102;-34
2021/12/31 02:20:02;;;;;;;0.20;0.20;;;;;;;19.08;44.99;101494.66;5144716;27;20035;-34
2021/12/31 02:22:28;;;;;;;0.20;0.20;;;;;;;19.09;44.96;101481.72;5126423;27;20039;-34
2021/12/31 02:24:55;;;;;;;0.20;0.20;;;;;;;19.09;45.06;101493.59;5139382;27;20527;-34
2021/12/31 02:27:23;;;;;;;0.20;0.20;;;;;;;19.09;44.78;101496.34;5140873;27;20035;-34
2021/12/31 02:29:48;;;;;;;0.20;0.20;;;;;;;19.09;44.79;101496.34;5125680;27;20055;-34
2021/12/31 02:32:14;;;;;;;0.20;0.20;;;;;;;19.09;45.07;101490.84;5130995;27;20042;-34
2021/12/31 02:34:40;;;;;;;0.20;0.20;;;;;;;19.11;45.07;101493.31;5123173;27;20125;-34
2021/12/31 02:37:06;;;;;;;0.20;0.20;;;;;;;19.11;44.78;101493.31;5129360;27;20078;-34
2021/12/31 02:39:34;;;;;;;0.20;0.20;;;;;;;19.09;45.13;101488.06;5129463;27;20039;-35
2021/12/31 02:41:59;;;;;;;0.20;0.20;;;;;;;19.09;44.91;101493.59;5127058;27;20039;-35
2021/12/31 02:44:25;;;;;;;0.20;0.20;;;;;;;19.10;44.97;101495.25;5094798;27;20521;-35
2021/12/31 02:46:52;;;;;;;0.20;0.20;;;;;;;19.11;44.79;101487.78;5130445;27;20484;-34
2021/12/31 02:49:23;;;;;;;0.20;0.20;;;;;;;19.09;44.96;101482.53;5128553;27;20051;-34
2021/12/31 02:51:48;;;;;;;0.20;0.20;;;;;;;19.09;44.82;101476.19;5122999;27;20547;-35
2021/12/31 02:54:16;;;;;;;0.20;0.20;;;;;;;19.10;45.00;101475.91;5126893;27;20046;-34
2021/12/31 02:56:41;;;;;;;0.20;0.20;;;;;;;19.09;45.06;101471.50;5131167;27;20039;-35
2021/12/31 02:59:10;;;;;;;0.20;0.20;;;;;;;19.09;44.80;101465.97;5127592;27;20051;-35
2021/12/31 03:01:35;;;;;;;0.20;0.20;;;;;;;19.11;44.83;101471.22;5129146;27;20047;-35
2021/12/31 03:04:01;;;;;;;0.22;0.22;;;;;;;19.09;44.93;101477.03;5110185;27;20086;-34
2021/12/31 03:06:27;;;;;;;0.20;0.20;;;;;;;19.10;45.05;101475.91;5111058;27;20479;-34
2021/12/31 03:08:53;;;;;;;0.20;0.20;;;;;;;19.10;45.05;101481.44;5127859;27;20058;-35
2021/12/31 03:11:19;;;;;;;0.20;0.20;;;;;;;19.10;44.86;101477.84;5131354;27;20064;-34
2021/12/31 03:13:51;;;;;;;0.20;0.20;;;;;;;19.10;44.91;101473.16;5131969;27;20039;-34
2021/12/31 03:16:20;;;;;;;0.20;0.20;;;;;;;19.11;44.92;101482.28;5116691;28;20058;-35
2021/12/31 03:18:45;;;;;;;;;;;;;;;19.11;45.00;101479.50;5125384;27;20039;-37
2021/12/31 03:21:20;;;;;;;0.20;0.20;;;;;;;19.10;45.04;101486.97;5131493;27;19920;-34
2021/12/31 03:23:46;;;;;;;0.20;0.20;;;;;;;19.10;44.86;101492.47;5128080;27;20047;-34
2021/12/31 03:26:12;;;;;;;0.20;0.20;;;;;;;19.11;45.12;101487.78;5122906;27;20071;-33
2021/12/31 03:28:38;;;;;;;0.20;0.20;;;;;;;19.11;45.12;101483.09;5111359;27;20042;-33
2021/12/31 03:31:04;;;;;;;0.20;0.20;;;;;;;19.11;44.85;101474.00;5130721;27;20369;-34
2021/12/31 03:33:29;;;;;;;0.20;0.20;;;;;;;19.11;44.90;101479.50;5107260;28;20058;-34
2021/12/31 03:35:55;;;;;;;0.20;0.20;;;;;;;19.11;45.06;101474.00;5137915;27;20478;-34
2021/12/31 03:38:21;;;;;;;0.20;0.20;;;;;;;19.11;45.15;101472.06;5126150;27;20039;-34
2021/12/31 03:40:47;;;;;;;0.20;0.20;;;;;;;19.11;45.07;101466.53;5135116;27;20039;-34
2021/12/31 03:43:13;;;;;;;0.20;0.20;;;;;;;19.11;44.89;101465.72;5132711;27;20087;-36
2021/12/31 03:45:40;;;;;;;0.20;0.20;;;;;;;19.12;45.05;101461.84;5129624;27;20051;-33
2021/12/31 03:48:06;;;;;;;0.20;0.20;;;;;;;19.12;44.84;101468.19;5127684;27;20135;-34
2021/12/31 03:50:32;;;;;;;0.20;0.20;;;;;;;19.12;44.96;101461.84;5128746;27;20051;-34
2021/12/31 03:52:57;;;;;;;0.20;0.20;;;;;;;19.11;44.97;101458.25;5125771;27;20050;-34
2021/12/31 03:55:23;;;;;;;0.25;0.25;;;;;;;19.12;44.89;101453.56;5130920;27;20126;-34
2021/12/31 03:57:49;;;;;;;0.20;0.20;;;;;;;19.12;44.78;101445.28;5110420;28;20401;-34
2021/12/31 04:00:15;;;;;;;0.20;0.20;;;;;;;19.11;44.97;101446.38;5110509;27;20138;-34
2021/12/31 04:02:41;;;;;;;0.20;0.20;;;;;;;19.12;44.87;101451.63;5108035;28;20092;-34
2021/12/31 04:05:07;;;;;;;0.20;0.20;;;;;;;19.13;45.12;101452.44;5106981;27;20558;-33
2021/12/31 04:07:33;;;;;;;0.20;0.20;;;;;;;19.11;45.08;101449.97;5129835;27;20439;-34
2021/12/31 04:09:58;;;;;;;0.20;0.20;;;;;;;19.12;45.04;101450.78;5124985;27;20053;-34
2021/12/31 04:12:24;;;;;;;0.20;0.20;;;;;;;19.12;44.96;101450.78;5128254;27;20043;-33
2021/12/31 04:14:50;;;;;;;0.20;0.20;;;;;;;19.12;45.06;101451.63;5108168;27;20043;-33
2021/12/31 04:17:15;;;;;;;0.20;0.20;;;;;;;19.13;45.03;101455.22;5128209;27;20367;-34
2021/12/31 04:19:42;;;;;;;0.20;0.20;;;;;;;19.12;45.10;101459.91;5128266;27;20112;-34
2021/12/31 04:22:11;;;;;;;0.20;0.20;;;;;;;19.13;45.15;101452.44;5128384;27;20061;-34
2021/12/31 04:27:22;;;;;;;0.20;0.20;;;;;;;19.13;44.78;101452.44;5178939;27;20124;-33
2021/12/31 04:29:52;;;;;;;0.20;0.20;;;;;;;19.13;45.11;101441.41;5163229;27;20572;-33
2021/12/31 04:32:19;;;;;;;0.20;0.20;;;;;;;19.13;45.05;101446.94;5164529;27;20441;-34
2021/12/31 04:34:45;;;;;;;0.20;0.20;;;;;;;19.13;45.12;101436.75;5123868;27;20070;-34
2021/12/31 04:37:11;;;;;;;0.20;0.20;;;;;;;19.13;44.96;101444.16;5147425;27;20473;-34
2021/12/31 04:39:37;;;;;;;0.20;0.20;;;;;;;19.13;45.11;101447.78;5162071;27;20038;-34
2021/12/31 04:42:03;;;;;;;0.20;0.20;;;;;;;19.13;45.06;101449.69;5165142;27;20103;-35
2021/12/31 04:44:28;;;;;;;0.20;0.20;;;;;;;19.13;44.89;101446.94;5164726;27;20039;-36
2021/12/31 04:46:54;;;;;;;0.20;0.20;;;;;;;19.13;45.14;101441.41;5164966;27;20536;-34
2021/12/31 04:49:20;;;;;;;0.20;0.20;;;;;;;19.13;44.88;101444.16;5166551;27;20042;-35
2021/12/31 04:51:45;;;;;;;0.20;0.20;;;;;;;19.14;45.17;101438.41;5166273;27;20524;-34
2021/12/31 04:54:15;;;;;;;0.20;0.20;;;;;;;19.14;44.84;101437.56;5163893;27;20038;-34
2021/12/31 04:56:43;;;;;;;0.20;0.20;;;;;;;19.13;44.97;101435.88;5160593;27;20117;-34
2021/12/31 04:59:09;;;;;;;0.20;0.20;;;;;;;19.13;44.80;101442.25;5159457;27;20384;-36
2021/12/31 05:01:35;;;;;;;0.20;0.20;;;;;;;19.13;45.13;101438.66;5165759;27;20133;-36
2021/12/31 05:04:01;;;;;;;0.20;0.20;;;;;;;19.13;45.14;101447.78;5161305;27;20042;-35
2021/12/31 05:06:27;;;;;;;0.20;0.20;;;;;;;19.12;45.15;101443.34;5161274;27;20145;-34
2021/12/31 05:08:53;;;;;;;0.20;0.20;;;;;;;19.13;45.10;101446.94;5163233;27;20042;-34
2021/12/31 05:11:19;;;;;;;0.20;0.20;;;;;;;19.14;44.98;101448.63;5163975;27;20083;-34
2021/12/31 05:13:44;;;;;;;0.20;0.20;;;;;;;19.13;44.86;101453.31;5145460;27;20513;-35
2021/12/31 05:16:10;;;;;;;0.20;0.20;;;;;;;19.14;44.97;101457.72;5165647;27;20251;-34
2021/12/31 05:18:36;;;;;;;0.20;0.20;;;;;;;19.14;45.01;101454.13;5165376;27;20034;-37
2021/12/31 05:21:01;;;;;;;0.20;0.20;;;;;;;19.14;44.94;101452.19;5165939;27;20038;-33
2021/12/31 05:23:27;;;;;;;0.20;0.20;;;;;;;19.13;44.96;101447.78;5162458;27;20043;-34
2021/12/31 05:25:58;;;;;;;0.20;0.20;;;;;;;19.13;45.06;101449.69;5166036;27;20153;-34
2021/12/31 05:28:24;;;;;;;0.20;0.20;;;;;;;19.14;45.06;101448.63;5165006;27;20034;-34
2021/12/31 05:30:49;;;;;;;0.20;0.20;;;;;;;19.14;45.17;101438.41;5165061;27;20045;-34
2021/12/31 05:33:15;;;;;;;0.20;0.20;;;;;;;19.14;45.08;101435.63;5165338;27;20054;-34
2021/12/31 05:35:41;;;;;;;0.20;0.20;;;;;;;19.14;44.89;101441.16;5165953;27;20053;-34
2021/12/31 05:38:07;;;;;;;0.20;0.20;;;;;;;19.14;44.83;101435.63;5152759;27;20042;-38
2021/12/31 05:40:34;;;;;;;0.20;0.20;;;;;;;19.15;45.38;101433.69;5150617;27;20043;-34
2021/12/31 05:43:00;;;;;;;0.20;0.20;;;;;;;19.15;44.99;101433.69;5150550;27;20039;-38
2021/12/31 05:45:26;;;;;;;0.20;0.20;;;;;;;19.16;45.03;101435.34;5131926;27;20123;-34
2021/12/31 05:47:59;;;;;;;0.20;0.20;;;;;;;19.15;44.90;101434.53;5150570;27;20399;-34
2021/12/31 05:50:28;;;;;;;0.30;0.30;;;;;;;19.15;44.91;101428.19;5150692;27;20043;-34
2021/12/31 05:52:56;;;;;;;0.30;0.30;;;;;;;19.15;45.05;101426.25;5144683;27;20046;-34
2021/12/31 05:55:22;;;;;;;0.20;0.20;;;;;;;19.15;45.14;101429.00;5149132;27;20061;-34
2021/12/31 05:57:47;;;;;;;0.20;0.20;;;;;;;19.16;45.00;101421.56;5149624;27;20050;-33
2021/12/31 06:00:13;;;;;;;0.20;0.20;;;;;;;19.14;45.05;101421.84;5131599;27;20051;-35
2021/12/31 06:02:39;;;;;;;0.20;0.20;;;;;;;19.15;45.05;101422.66;5149070;27;20039;-34
2021/12/31 06:05:05;;;;;;;0.20;0.20;;;;;;;19.15;44.88;101425.41;5148812;27;20163;-34
2021/12/31 06:07:31;;;;;;;0.22;0.22;;;;;;;19.15;44.91;101426.25;5149997;27;20074;-34
2021/12/31 06:09:56;;;;;;;0.30;0.30;;;;;;;19.14;44.91;101427.34;5149754;27;20046;-34
2021/12/31 06:12:23;;;;;;;0.30;0.30;;;;;;;19.16;44.99;101422.38;5149752;27;20065;-34
2021/12/31 06:14:50;;;;;;;0.20;0.20;;;;;;;19.16;44.94;101429.84;5150557;27;20416;-34
2021/12/31 06:17:21;;;;;;;0.30;0.30;;;;;;;19.15;45.01;101436.47;5150450;27;20103;-34
2021/12/31 06:19:47;;;;;;;0.20;0.20;;;;;;;19.15;44.97;101442.81;5129102;28;20062;-34
2021/12/31 06:22:13;;;;;;;0.30;0.30;;;;;;;19.16;44.88;101438.94;5129257;28;20409;-34
2021/12/31 06:24:41;;;;;;;0.30;0.30;;;;;;;19.15;44.92;101442.81;5126814;28;20552;-34
2021/12/31 06:27:07;;;;;;;0.20;0.20;;;;;;;19.16;45.00;101438.94;5127735;28;20375;-39
2021/12/31 06:29:33;;;;;;;0.20;0.20;;;;;;;19.15;45.18;101437.28;5110692;28;20043;-34
2021/12/31 06:31:58;;;;;;;0.30;0.30;;;;;;;19.15;45.12;101440.06;5127910;28;20406;-34
2021/12/31 06:34:24;;;;;;;0.20;0.20;;;;;;;19.15;45.26;101437.28;5127251;28;20070;-34
2021/12/31 06:36:51;;;;;;;0.20;0.20;;;;;;;19.17;44.96;101440.63;5124818;27;20508;-34
2021/12/31 06:39:16;;;;;;;0.20;0.20;;;;;;;19.16;45.07;101446.41;5124642;28;20043;-34
2021/12/31 06:41:42;;;;;;;0.20;0.20;;;;;;;19.17;44.86;101445.28;5127063;28;20043;-34
2021/12/31 06:44:08;;;;;;;0.30;0.30;;;;;;;19.16;44.86;101441.72;5124650;28;20367;-33
2021/12/31 06:46:33;;;;;;;0.30;0.30;;;;;;;19.17;44.93;101448.91;5126141;28;20103;-34
2021/12/31 06:48:59;;;;;;;0.20;0.20;;;;;;;19.16;44.93;101433.44;5126216;28;20055;-33
2021/12/31 06:51:25;;;;;;;0.30;0.30;;;;;;;19.16;45.29;101422.38;5127807;28;20039;-37
2021/12/31 06:53:51;;;;;;;0.30;0.30;;;;;;;19.16;45.13;101421.56;5124528;28;20046;-35
2021/12/31 06:56:16;;;;;;;0.20;0.20;;;;;;;19.17;45.12;101420.44;5126150;28;20402;-34
2021/12/31 06:58:44;;;;;;;0.30;0.30;;;;;;;19.17;44.98;101423.22;5110461;28;20047;-34
2021/12/31 07:01:13;;;;;;;0.30;0.30;;;;;;;19.16;45.11;101422.38;5129802;28;20051;-34
2021/12/31 07:03:39;;;;;;;0.20;0.20;;;;;;;19.17;44.89;101420.44;5127427;28;20489;-35
2021/12/31 07:06:04;;;;;;;0.20;0.20;;;;;;;19.17;44.98;101417.69;5128159;28;20051;-34
2021/12/31 07:08:30;;;;;;;0.20;0.20;;;;;;;19.17;45.11;101425.97;5124908;28;20050;-34
2021/12/31 07:10:56;;;;;;;0.20;0.20;;;;;;;19.17;44.85;101439.78;5127777;28;20100;-34
2021/12/31 07:13:21;;;;;;;0.30;0.30;;;;;;;19.18;45.07;101434.00;5127062;28;20046;-35
2021/12/31 07:15:49;;;;;;;0.30;0.30;;;;;;;19.18;45.14;101441.47;5124156;28;20074;-34
2021/12/31 07:18:17;;;;;;;0.20;0.20;;;;;;;19.17;45.10;101446.16;5127429;28;20055;-34
2021/12/31 07:20:42;;;;;;;0.20;0.20;;;;;;;19.17;45.40;101440.63;5092209;28;20289;-35
2021/12/31 07:23:11;;;;;;;0.20;0.20;;;;;;;19.17;45.10;101448.91;5126746;28;20042;-34
2021/12/31 07:25:38;;;;;;;0.20;0.20;;;;;;;19.18;45.03;101455.25;5092373;28;20050;-34
2021/12/31 07:28:04;;;;;;;0.25;0.25;;;;;;;19.18;44.90;101444.22;5127886;28;20048;-35
2021/12/31 07:30:30;;;;;;;0.20;0.20;;;;;;;19.18;44.92;101444.22;5123496;28;20054;-34
2021/12/31 07:32:56;;;;;;;0.20;0.20;;;;;;;19.17;45.15;101445.28;5127785;28;20047;-34
2021/12/31 07:35:22;;;;;;;0.20;0.20;;;;;;;19.19;45.11;101451.41;5127365;28;20074;-34
2021/12/31 07:37:47;;;;;;;0.30;0.30;;;;;;;19.18;44.91;101447.81;5128342;28;20039;-34
2021/12/31 07:40:13;;;;;;;0.20;0.20;;;;;;;19.18;45.11;101446.97;5125581;28;20043;-38
2021/12/31 07:42:41;;;;;;;0.20;0.20;;;;;;;19.18;44.98;101447.81;5129142;28;20103;-34
2021/12/31 07:45:07;;;;;;;0.20;0.20;;;;;;;19.17;44.94;101435.09;5126675;28;20034;-34
2021/12/31 07:47:32;;;;;;;0.20;0.20;;;;;;;19.19;44.98;101440.34;5126794;28;20042;-34
2021/12/31 07:49:58;;;;;;;0.20;0.20;;;;;;;19.19;44.94;101440.34;5126352;28;20050;-36
2021/12/31 07:52:24;;;;;;;0.20;0.20;;;;;;;19.18;45.04;101438.69;5090726;28;20059;-34
2021/12/31 07:54:50;;;;;;;0.20;0.20;;;;;;;19.19;44.96;101443.13;5125710;28;20039;-35
2021/12/31 07:57:15;;;;;;;0.20;0.20;;;;;;;19.18;44.90;101436.75;5126779;28;20043;-34
2021/12/31 07:59:41;;;;;;;0.20;0.20;;;;;;;19.19;44.88;101443.13;5128166;27;20149;-34
2021/12/31 08:02:07;;;;;;;0.20;0.20;;;;;;;19.18;45.16;101442.28;5128097;28;20104;-35
2021/12/31 08:04:33;;;;;;;0.20;0.20;;;;;;;19.19;45.25;101448.63;5104232;28;20142;-34
2021/12/31 08:06:59;;;;;;;0.30;0.30;;;;;;;19.19;45.19;101456.91;5127786;28;20039;-34
2021/12/31 08:09:25;;;;;;;0.20;0.20;;;;;;;19.19;44.93;101456.91;5125072;28;20040;-34
2021/12/31 08:11:51;;;;;;;0.20;0.20;;;;;;;19.19;45.15;101449.47;5127957;28;20096;-34
2021/12/31 08:14:17;;;;;;;0.28;0.28;;;;;;;19.19;44.82;101460.50;5109196;28;20118;-36
2021/12/31 08:16:42;;;;;;;0.20;0.20;;;;;;;19.18;44.98;101461.63;5127945;28;20046;-35
2021/12/31 08:19:08;;;;;;;0.20;0.20;;;;;;;19.19;45.13;101459.69;5127245;27;20393;-34
2021/12/31 08:21:34;;;;;;;0.20;0.20;;;;;;;19.20;44.89;101464.09;5125705;28;20050;-36
2021/12/31 08:24:00;;;;;;;0.20;0.20;;;;;;;19.19;45.04;101459.69;5088266;28;20130;-35
2021/12/31 08:26:26;;;;;;;0.20;0.20;;;;;;;19.18;45.17;101456.09;5126684;28;20435;-35
2021/12/31 08:28:51;;;;;;;0.30;0.30;;;;;;;19.19;45.09;101462.44;5127941;28;20035;-34
2021/12/31 08:31:17;;;;;;;0.30;0.30;;;;;;;19.20;44.84;101461.34;5128453;28;20050;-35
2021/12/31 08:33:42;;;;;;;0.20;0.20;;;;;;;19.19;44.91;101460.50;5125692;28;20091;-34
2021/12/31 08:36:08;;;;;;;0.20;0.20;;;;;;;19.19;45.00;101455.00;5122224;27;20481;-34
2021/12/31 08:38:34;;;;;;;0.22;0.22;;;;;;;19.19;45.18;101455.00;5128248;28;20508;-34
2021/12/31 08:41:01;;;;;;;0.20;0.20;;;;;;;19.19;45.02;101457.75;5126822;28;20055;-35
2021/12/31 08:43:27;;;;;;;0.20;0.20;;;;;;;19.19;45.04;101454.16;5122231;28;20172;-34
2021/12/31 08:45:52;;;;;;;0.20;0.20;;;;;;;19.18;44.99;101456.09;5092960;28;20035;-34
2021/12/31 08:48:18;;;;;;;0.20;0.20;;;;;;;19.19;44.83;101463.25;5127421;28;20043;-34
2021/12/31 08:50:44;;;;;;;0.20;0.20;;;;;;;19.19;44.97;101466.03;5106902;28;20040;-34
2021/12/31 08:53:10;;;;;;;0.20;0.20;;;;;;;19.19;45.00;101477.06;5120600;28;20134;-34
2021/12/31 08:55:35;;;;;;;0.20;0.20;;;;;;;19.19;44.94;101467.97;5105940;28;20047;-33
2021/12/31 08:58:01;;;;;;;0.20;0.20;;;;;;;19.20;45.09;101475.13;5126874;28;20047;-34
2021/12/31 09:00:27;;;;;;;0.20;0.20;;;;;;;19.19;44.80;101474.31;5125901;28;20043;-34
2021/12/31 09:02:53;;;;;;;0.20;0.20;;;;;;;19.20;44.82;101481.50;5127370;28;20092;-33
2021/12/31 09:05:18;;;;;;;0.20;0.20;;;;;;;19.20;44.88;101466.84;5106365;28;20201;-37
2021/12/31 09:07:44;;;;;;;0.20;0.20;;;;;;;19.20;45.08;101464.94;5123805;28;20178;-34
2021/12/31 09:10:10;;;;;;;0.20;0.20;;;;;;;19.19;45.13;101477.06;5125236;28;20051;-34
2021/12/31 09:12:37;;;;;;;0.20;0.20;;;;;;;19.20;45.00;101475.13;5128293;27;20039;-34
2021/12/31 09:15:04;;;;;;;0.20;0.20;;;;;;;19.20;45.07;101475.13;5112223;28;20251;-34
2021/12/31 09:17:30;;;;;;;0.20;0.20;;;;;;;19.20;44.93;101481.50;5111383;28;20047;-37
2021/12/31 09:19:55;;;;;;;0.20;0.20;;;;;;;19.20;45.04;101481.50;5110272;28;20489;-34
2021/12/31 09:22:21;;;;;;;0.30;0.30;;;;;;;19.20;45.08;101487.00;5126674;28;20047;-34
2021/12/31 09:24:48;;;;;;;0.20;0.20;;;;;;;19.20;44.90;101486.19;5129269;28;20122;-34
2021/12/31 09:27:14;;;;;;;0.20;0.20;;;;;;;19.21;44.80;101474.03;5130619;28;20044;-33
2021/12/31 09:29:40;;;;;;;0.20;0.20;;;;;;;19.20;44.95;101472.38;5129816;28;20085;-34
2021/12/31 09:32:06;;;;;;;0.20;0.20;;;;;;;19.21;45.16;101465.75;5129255;28;20040;-34
2021/12/31 09:34:32;;;;;;;0.20;0.20;;;;;;;19.20;44.70;101478.72;5128866;28;20035;-34
2021/12/31 09:36:57;;;;;;;0.20;0.20;;;;;;;19.20;44.93;101477.91;5129387;28;20055;-34
2021/12/31 09:39:23;;;;;;;0.20;0.20;;;;;;;19.21;44.97;101476.78;5125248;28;20238;-34
2021/12/31 09:41:49;;;;;;;0.20;0.20;;;;;;;19.21;44.90;101479.56;5131160;28;20473;-34
2021/12/31 09:44:15;;;;;;;0.20;0.20;;;;;;;19.21;44.99;101483.19;5130409;28;20453;-33
2021/12/31 09:46:42;;;;;;;0.20;0.20;;;;;;;19.21;44.90;101482.31;5129090;28;20046;-34
2021/12/31 09:49:07;;;;;;;0.20;0.20;;;;;;;19.22;45.03;101487.59;5130469;28;20088;-36
2021/12/31 09:51:34;;;;;;;0.20;0.20;;;;;;;19.20;44.97;101484.25;5125793;28;20039;-34
2021/12/31 09:54:00;;;;;;;0.20;0.20;;;;;;;19.20;44.88;101492.53;5129113;28;20111;-34
2021/12/31 09:56:28;;;;;;;0.20;0.20;;;;;;;19.20;45.14;101475.13;5112716;28;20080;-33
2021/12/31 09:58:53;;;;;;;0.20;0.20;;;;;;;19.21;44.86;101477.66;5111300;28;20039;-33
2021/12/31 10:01:19;;;;;;;0.20;0.20;;;;;;;19.21;44.98;101474.91;5129736;28;20042;-33
2021/12/31 10:03:54;;;;;;;0.20;0.20;;;;;;;19.21;44.81;101485.06;5121082;28;20530;-34
2021/12/31 10:06:20;;;;;;;0.20;0.20;;;;;;;19.22;44.92;101478.47;5124322;28;20104;-34
2021/12/31 10:08:47;;;;;;;0.20;0.20;;;;;;;19.21;44.87;101469.38;5126738;28;20107;-34
2021/12/31 10:11:20;;;;;;;0.20;0.20;;;;;;;19.21;45.23;101477.66;5093274;28;20035;-35
2021/12/31 10:13:55;;;;;;;0.20;0.20;;;;;;;19.20;44.98;101472.38;5113222;28;20054;-34
2021/12/31 10:19:16;;;;;;;0.30;0.30;;;;;;;19.21;45.20;101494.22;5155411;27;20407;-34
2021/12/31 10:21:46;;;;;;;0.20;0.20;;;;;;;19.20;44.96;101492.53;5122083;27;20039;-34
2021/12/31 10:24:35;;;;;;;0.20;0.20;;;;;;;19.21;45.05;101501.66;5121457;27;20040;-34
2021/12/31 10:27:16;;;;;;;0.20;0.20;;;;;;;19.21;44.81;101498.88;5122090;27;20050;-35
2021/12/31 10:29:59;;;;;;;0.20;0.20;;;;;;;19.21;45.05;101498.88;5124424;27;20065;-34
2021/12/31 10:32:28;;;;;;;0.20;0.20;;;;;;;19.22;45.14;101506.09;5123081;27;20045;-33
2021/12/31 10:34:54;;;;;;;0.20;0.20;;;;;;;19.22;45.15;101503.34;5121619;27;20045;-34
2021/12/31 10:37:23;;;;;;;0.20;0.20;;;;;;;19.21;45.13;101498.88;5119749;27;20047;-33
2021/12/31 10:40:05;;;;;;;0.20;0.20;;;;;;;19.21;45.16;101502.50;5123825;27;20042;-34
2021/12/31 10:42:32;;;;;;;0.20;0.20;;;;;;;19.22;44.96;101484.84;5132930;27;20039;-34
2021/12/31 10:45:00;;;;;;;0.20;0.20;;;;;;;19.22;44.88;101478.47;5124746;27;20047;-34
2021/12/31 10:47:37;;;;;;;0.20;0.20;;;;;;;19.23;45.15;101474.63;5149217;27;20042;-33
2021/12/31 10:50:07;;;;;;;0.20;0.20;;;;;;;19.22;45.13;101473.78;5123035;27;20035;-34
2021/12/31 10:52:38;;;;;;;0.20;0.20;;;;;;;19.22;45.15;101462.75;5114261;27;20035;-34
2021/12/31 10:55:40;;;;;;;0.20;0.20;;;;;;;19.21;45.21;101452.81;5105757;27;20044;-34
2021/12/31 10:57:57;;;;;;;0.20;0.20;;;;;;;19.21;45.12;101461.09;5116774;27;20044;-34
2021/12/31 11:00:25;;;;;;;0.20;0.20;;;;;;;19.21;45.09;101444.53;5119827;27;20043;-34
2021/12/31 11:02:50;;;;;;;0.20;0.20;;;;;;;19.22;44.94;101424.09;5137181;27;20042;-39
2021/12/31 11:05:20;;;;;;;0.20;0.20;;;;;;;19.22;44.98;101426.84;5138174;27;20049;-34
2021/12/31 11:07:45;;;;;;;0.20;0.20;;;;;;;19.22;45.00;101415.81;5122341;27;20043;-39
2021/12/31 11:10:33;;;;;;;0.20;0.20;;;;;;;19.22;44.97;101423.25;5129673;27;20079;-34
2021/12/31 11:13:03;;;;;;;0.20;0.20;;;;;;;19.22;45.02;101415.81;5116450;27;20057;-34
2021/12/31 11:15:28;;;;;;;0.20;0.20;;;;;;;19.22;44.87;101402.00;5121102;27;20039;-34
2021/12/31 11:17:54;;;;;;;0.20;0.20;;;;;;;19.23;44.89;101425.75;5136212;27;20430;-34
2021/12/31 11:20:21;;;;;;;0.20;0.20;;;;;;;19.23;44.90;101436.78;5135973;27;20048;-34
2021/12/31 11:22:47;;;;;;;0.20;0.20;;;;;;;19.24;45.04;101435.69;5137354;27;20051;-35
2021/12/31 11:25:33;;;;;;;0.20;0.20;;;;;;;19.23;45.03;101444.25;5121192;27;20043;-34
2021/12/31 11:27:59;;;;;;;0.20;0.20;;;;;;;19.22;44.88;101421.31;5136278;27;20074;-34
2021/12/31 11:30:40;;;;;;;0.20;0.20;;;;;;;19.24;45.10;101438.44;5128230;27;20043;-34
2021/12/31 11:33:10;;;;;;;0.20;0.20;;;;;;;19.23;44.86;101453.34;5100830;28;20057;-34